Time;durP1;ratioP1;P1;durP2;ratioP2;P2;SDS_P1;SDS_P2;PMS_P1;PMS_P2;Temp;Humidity;BMP_temperature;BMP_pressure;BME280_temperature;BME280_humidity;BME280_pressure;Samples;Min_cycle;Max_cycle;Signal;HPM_P1;HPM_P2
2022/10/14 00:00:21;;;;;;;27.13;20.37;;;;;;;13.23;100.00;101537.69;4970923;28;20230;-73
2022/10/14 00:02:46;;;;;;;30.90;21.60;;;;;;;13.20;100.00;101528.19;4969919;28;20220;-73
2022/10/14 00:05:12;;;;;;;31.03;21.10;;;;;;;13.21;100.00;101531.66;4971351;28;20269;-72
2022/10/14 00:07:37;;;;;;;28.30;20.30;;;;;;;13.21;100.00;101537.63;4970314;28;20555;-72
2022/10/14 00:10:04;;;;;;;27.37;20.70;;;;;;;13.20;100.00;101537.59;4968685;28;20262;-73
2022/10/14 00:12:30;;;;;;;28.17;20.73;;;;;;;13.20;100.00;101532.47;4971519;28;20191;-73
2022/10/14 00:14:55;;;;;;;29.80;21.17;;;;;;;13.18;100.00;101537.59;4968199;28;20282;-73
2022/10/14 00:17:21;;;;;;;26.67;19.97;;;;;;;13.18;100.00;101540.16;4971603;28;20334;-73
2022/10/14 00:19:48;;;;;;;25.20;20.37;;;;;;;13.15;100.00;101532.38;4966117;28;20216;-73
2022/10/14 00:22:13;;;;;;;28.47;19.37;;;;;;;13.15;100.00;101532.38;4971939;28;20181;-73
2022/10/14 00:24:39;;;;;;;27.23;20.27;;;;;;;13.14;100.00;101535.78;4962061;28;20227;-72
2022/10/14 00:27:04;;;;;;;26.53;19.30;;;;;;;13.13;100.00;101534.06;4970565;28;20192;-72
2022/10/14 00:29:30;;;;;;;25.17;20.07;;;;;;;13.09;100.00;101528.81;4979656;28;20217;-72
2022/10/14 00:31:55;;;;;;;29.23;20.73;;;;;;;13.09;100.00;101529.69;4968812;28;20236;-73
2022/10/14 00:34:20;;;;;;;32.07;21.07;;;;;;;13.09;100.00;101527.13;4963294;28;20658;-73
2022/10/14 00:36:46;;;;;;;27.00;20.00;;;;;;;13.12;100.00;101534.88;4981715;28;20216;-73
2022/10/14 00:39:17;;;;;;;27.13;20.23;;;;;;;13.09;100.00;101532.28;4965646;28;20565;-73
2022/10/14 00:41:43;;;;;;;29.70;19.87;;;;;;;13.10;100.00;101531.44;4967397;28;20181;-73
2022/10/14 00:44:14;;;;;;;27.17;19.57;;;;;;;13.09;100.00;101531.38;4965415;28;20212;-72
2022/10/14 00:46:45;;;;;;;31.43;21.53;;;;;;;13.10;100.00;101530.53;4965769;28;20201;-72
2022/10/14 00:49:15;;;;;;;26.03;19.40;;;;;;;13.09;100.00;101529.69;4967953;28;20194;-73
2022/10/14 00:51:48;;;;;;;27.73;20.57;;;;;;;13.09;100.00;101539.09;4964442;28;20689;-73
2022/10/14 00:54:17;;;;;;;31.60;21.27;;;;;;;13.06;100.00;101529.63;4982979;28;20272;-73
2022/10/14 00:56:44;;;;;;;31.27;21.83;;;;;;;13.07;100.00;101533.91;4950081;28;20194;-73
2022/10/14 00:59:11;;;;;;;32.97;21.07;;;;;;;13.09;100.00;101528.81;4970027;28;20192;-73
2022/10/14 01:01:36;;;;;;;27.87;21.17;;;;;;;13.08;100.00;101527.09;4970378;28;20220;-73
2022/10/14 01:04:02;;;;;;;30.70;20.83;;;;;;;13.09;100.00;101532.28;4953814;28;20213;-73
2022/10/14 01:06:50;;;;;;;31.70;21.10;;;;;;;13.09;100.00;101519.41;4969325;28;20208;-73
2022/10/14 01:09:18;;;;;;;27.30;20.33;;;;;;;13.12;100.00;101522.03;4968394;28;20212;-73
2022/10/14 01:11:53;;;;;;;26.30;19.83;;;;;;;13.12;100.00;101518.59;4968245;28;20188;-73
2022/10/14 01:14:42;;;;;;;29.43;19.70;;;;;;;13.12;100.00;101519.44;4966660;28;20649;-73
2022/10/14 01:17:33;;;;;;;27.60;20.63;;;;;;;13.13;100.00;101513.50;4969031;28;20283;-73
2022/10/14 01:20:29;;;;;;;27.73;20.23;;;;;;;13.11;100.00;101514.31;4955355;23;20239;-71
2022/10/14 01:23:13;;;;;;;28.13;19.33;;;;;;;13.12;100.00;101516.88;4950330;29;20693;-72
2022/10/14 01:25:54;;;;;;;27.17;20.30;;;;;;;13.11;100.00;101517.72;4951127;28;20200;-70
2022/10/14 01:28:47;;;;;;;28.70;19.37;;;;;;;13.12;100.00;101519.44;4950778;28;20193;-71
2022/10/14 01:31:22;;;;;;;28.30;19.20;;;;;;;13.11;100.00;101514.31;4932328;29;20319;-72
2022/10/14 01:33:54;;;;;;;30.33;19.83;;;;;;;13.11;100.00;101516.88;4945915;28;20189;-71
2022/10/14 01:36:28;;;;;;;26.90;19.67;;;;;;;13.09;100.00;101509.13;4935352;29;20186;-71
2022/10/14 01:39:08;;;;;;;28.40;21.60;;;;;;;13.08;100.00;101502.22;4933949;29;20237;-69
2022/10/14 01:41:45;;;;;;;25.33;19.60;;;;;;;13.08;100.00;101507.38;4945011;28;20198;-71
2022/10/14 01:44:15;;;;;;;29.47;20.27;;;;;;;13.09;100.00;101497.97;4945102;28;20268;-72
2022/10/14 01:46:45;;;;;;;31.47;20.50;;;;;;;13.10;100.00;101499.69;4933324;29;20542;-71
2022/10/14 01:49:30;;;;;;;27.23;19.70;;;;;;;13.08;100.00;101497.09;4931077;29;20205;-69
2022/10/14 01:52:04;;;;;;;28.40;21.00;;;;;;;13.09;100.00;101490.25;4932226;29;20197;-68
2022/10/14 01:54:34;;;;;;;33.23;22.03;;;;;;;13.08;100.00;101494.50;4947241;28;20186;-71
2022/10/14 01:57:04;;;;;;;31.97;22.67;;;;;;;13.09;100.00;101483.41;4933078;29;20599;-70
2022/10/14 01:59:33;;;;;;;30.80;22.10;;;;;;;13.07;100.00;101479.94;4934245;28;20697;-71
2022/10/14 02:01:58;;;;;;;33.00;22.50;;;;;;;13.11;100.00;101483.44;4948392;28;20289;-71
2022/10/14 02:04:24;;;;;;;32.37;23.67;;;;;;;13.09;100.00;101482.53;4940974;29;20774;-71
2022/10/14 02:07:14;;;;;;;32.93;22.33;;;;;;;13.08;100.00;101479.09;4943546;28;20197;-71
2022/10/14 02:10:34;;;;;;;33.43;22.73;;;;;;;13.09;100.00;101473.13;4929787;29;20205;-71
2022/10/14 02:13:29;;;;;;;36.47;24.73;;;;;;;13.11;100.00;101475.75;4914189;29;20221;-72
2022/10/14 02:16:00;;;;;;;36.43;25.20;;;;;;;13.13;100.00;101481.75;4933592;29;20193;-71
2022/10/14 02:18:37;;;;;;;34.63;24.30;;;;;;;13.13;100.00;101476.63;4921707;29;20261;-71
2022/10/14 02:21:22;;;;;;;34.30;23.40;;;;;;;13.13;100.00;101474.94;4931236;29;20294;-71
2022/10/14 02:24:04;;;;;;;34.00;24.23;;;;;;;13.13;100.00;101468.91;4929106;29;20604;-71
2022/10/14 02:26:31;;;;;;;35.13;24.80;;;;;;;13.13;100.00;101471.47;4930171;29;20272;-71
2022/10/14 02:29:01;;;;;;;34.70;23.43;;;;;;;13.12;100.00;101460.31;4937469;29;20193;-72
2022/10/14 02:31:28;;;;;;;37.13;25.73;;;;;;;13.12;100.00;101465.44;4931758;29;20193;-71
2022/10/14 02:33:59;;;;;;;37.03;25.50;;;;;;;13.11;100.00;101468.03;4932111;29;20665;-68
2022/10/14 02:36:26;;;;;;;36.00;24.57;;;;;;;13.10;100.00;101471.41;4931212;29;20725;-71
2022/10/14 02:38:57;;;;;;;38.90;26.07;;;;;;;13.09;100.00;101467.09;4944602;28;20190;-71
2022/10/14 02:41:27;;;;;;;38.00;24.63;;;;;;;13.10;100.00;101468.84;4947726;28;20292;-72
2022/10/14 02:43:53;;;;;;;34.47;25.17;;;;;;;13.08;100.00;101467.94;4934910;28;20222;-72
2022/10/14 02:46:20;;;;;;;34.40;25.03;;;;;;;13.09;100.00;101468.00;4934837;29;20244;-72
2022/10/14 02:48:46;;;;;;;38.90;26.30;;;;;;;13.10;100.00;101463.69;4949297;28;20185;-71
2022/10/14 02:51:12;;;;;;;38.77;26.67;;;;;;;13.07;100.00;101467.06;4939227;29;20185;-71
2022/10/14 02:53:37;;;;;;;39.93;27.73;;;;;;;13.08;100.00;101470.53;4947881;28;20201;-72
2022/10/14 02:56:03;;;;;;;39.93;27.43;;;;;;;13.07;100.00;101467.06;4935436;29;20333;-71
2022/10/14 02:58:28;;;;;;;43.37;27.63;;;;;;;13.06;100.00;101472.19;4935830;29;20225;-71
2022/10/14 03:00:55;;;;;;;44.27;27.70;;;;;;;13.04;100.00;101472.19;4942811;28;20803;-70
2022/10/14 03:03:21;;;;;;;46.00;30.23;;;;;;;13.02;100.00;101481.53;4948983;28;20305;-71
2022/10/14 03:05:47;;;;;;;47.17;29.73;;;;;;;13.02;100.00;101471.25;4948792;28;20190;-70
2022/10/14 03:08:14;;;;;;;47.00;29.27;;;;;;;13.02;100.00;101466.13;4948357;28;20186;-71
2022/10/14 03:10:39;;;;;;;43.77;28.67;;;;;;;13.05;100.00;101470.44;4934939;29;20265;-71
2022/10/14 03:13:08;;;;;;;45.13;29.50;;;;;;;13.04;100.00;101468.72;4934742;29;20685;-71
2022/10/14 03:15:39;;;;;;;48.67;28.90;;;;;;;13.04;100.00;101467.03;4945699;28;20191;-69
2022/10/14 03:18:05;;;;;;;45.43;29.10;;;;;;;13.03;100.00;101470.41;4949766;28;20553;-71
2022/10/14 03:20:44;;;;;;;46.27;27.80;;;;;;;13.04;100.00;101471.28;4946238;28;20224;-70
2022/10/14 03:23:13;;;;;;;41.20;28.87;;;;;;;13.05;100.00;101471.34;4932582;29;20221;-70
2022/10/14 03:25:42;;;;;;;48.23;29.10;;;;;;;13.06;100.00;101461.91;4945213;28;20284;-71
2022/10/14 03:28:12;;;;;;;44.20;27.70;;;;;;;13.08;100.00;101462.81;4931250;29;20193;-70
2022/10/14 03:30:50;;;;;;;42.77;29.37;;;;;;;13.05;100.00;101461.03;4939390;28;20286;-70
2022/10/14 03:33:29;;;;;;;39.93;26.67;;;;;;;13.05;100.00;101458.47;4928624;29;20570;-71
2022/10/14 03:36:04;;;;;;;45.63;28.37;;;;;;;13.09;100.00;101456.81;4947372;28;20281;-70
2022/10/14 03:38:41;;;;;;;46.87;27.53;;;;;;;13.08;100.00;101455.09;4916292;29;20318;-70
2022/10/14 03:41:14;;;;;;;44.10;28.70;;;;;;;13.10;100.00;101455.97;4932338;29;20194;-70
2022/10/14 03:43:40;;;;;;;41.03;27.10;;;;;;;13.10;100.00;101449.16;4933502;28;20686;-72
2022/10/14 03:46:05;;;;;;;40.20;26.33;;;;;;;13.10;100.00;101451.72;4930664;29;20544;-69
2022/10/14 03:48:31;;;;;;;42.20;27.60;;;;;;;13.12;100.00;101450.03;4923999;29;20202;-68
2022/10/14 03:50:56;;;;;;;42.47;28.47;;;;;;;13.11;100.00;101452.59;4928472;29;20242;-69
2022/10/14 03:53:22;;;;;;;43.90;28.47;;;;;;;13.09;100.00;101456.81;4943714;28;20194;-69
2022/10/14 03:55:48;;;;;;;41.77;28.27;;;;;;;13.09;100.00;101444.84;4930358;29;20563;-69
2022/10/14 03:58:14;;;;;;;43.43;28.27;;;;;;;13.11;100.00;101457.72;4933902;28;20181;-69
2022/10/14 04:00:46;;;;;;;42.90;28.23;;;;;;;13.09;100.00;101456.81;4942009;28;20301;-68
2022/10/14 04:03:40;;;;;;;41.83;27.20;;;;;;;13.14;100.00;101450.06;4938810;28;20234;-70
2022/10/14 04:06:05;;;;;;;45.77;29.50;;;;;;;13.10;100.00;101456.84;4926776;29;20200;-70
2022/10/14 04:08:31;;;;;;;44.80;28.13;;;;;;;13.11;100.00;101457.72;4931031;29;20190;-69
2022/10/14 04:11:01;;;;;;;45.07;28.40;;;;;;;13.14;100.00;101455.19;4945812;28;20272;-70
2022/10/14 04:13:32;;;;;;;42.90;27.37;;;;;;;13.13;100.00;101461.19;4924201;29;20181;-69
2022/10/14 04:16:06;;;;;;;44.77;27.83;;;;;;;13.14;100.00;101450.06;4929657;29;20270;-69
2022/10/14 04:18:35;;;;;;;44.10;28.53;;;;;;;13.15;100.00;101447.53;4927427;29;20251;-68
2022/10/14 04:21:09;;;;;;;43.57;27.57;;;;;;;13.14;100.00;101442.34;4936679;28;20266;-70
2022/10/14 04:23:35;;;;;;;46.10;28.20;;;;;;;13.15;100.00;101450.09;4928775;29;20631;-68
2022/10/14 04:26:09;;;;;;;41.10;27.47;;;;;;;13.14;100.00;101443.22;4948581;28;20638;-69
2022/10/14 04:28:37;;;;;;;43.67;28.63;;;;;;;13.16;100.00;101438.97;4933440;29;20194;-70
2022/10/14 04:31:17;;;;;;;45.73;27.77;;;;;;;13.16;100.00;101441.53;4932448;28;20194;-69
2022/10/14 04:33:54;;;;;;;42.20;28.67;;;;;;;13.16;100.00;101435.53;4945091;28;20270;-69
2022/10/14 04:36:27;;;;;;;44.67;28.83;;;;;;;13.18;100.00;101432.16;4920119;29;20276;-69
2022/10/14 04:38:55;;;;;;;41.97;27.17;;;;;;;13.20;100.00;101434.72;4945366;28;20194;-69
2022/10/14 04:41:20;;;;;;;42.77;26.53;;;;;;;13.21;100.00;101427.03;4931513;29;20190;-69
2022/10/14 04:43:47;;;;;;;38.63;26.80;;;;;;;13.22;100.00;101426.19;4922430;29;20209;-70
2022/10/14 04:46:28;;;;;;;38.60;25.83;;;;;;;13.21;100.00;101416.75;4931266;28;20633;-69
2022/10/14 04:48:54;;;;;;;40.27;28.20;;;;;;;13.23;100.00;101422.81;4947032;28;20194;-70
2022/10/14 04:51:22;;;;;;;42.03;26.90;;;;;;;13.23;100.00;101427.97;4935121;29;20196;-69
2022/10/14 04:54:09;;;;;;;42.73;27.00;;;;;;;13.24;100.00;101426.25;4946506;28;20204;-70
2022/10/14 04:56:42;;;;;;;44.27;27.23;;;;;;;13.23;100.00;101419.38;4934776;29;20560;-69
2022/10/14 04:59:10;;;;;;;40.53;25.73;;;;;;;13.21;100.00;101433.91;4929693;29;20807;-69
2022/10/14 05:02:03;;;;;;;38.87;25.97;;;;;;;13.22;100.00;101417.66;4931733;29;20269;-69
2022/10/14 05:04:37;;;;;;;41.60;26.80;;;;;;;13.23;100.00;101421.94;4926475;29;20222;-69
2022/10/14 05:07:03;;;;;;;42.40;26.40;;;;;;;13.24;100.00;101418.53;4947174;28;20539;-69
2022/10/14 05:09:30;;;;;;;41.43;25.77;;;;;;;13.23;100.00;101419.38;4923649;29;20201;-70
2022/10/14 05:11:56;;;;;;;45.13;28.07;;;;;;;13.23;100.00;101412.53;4930093;29;20567;-69
2022/10/14 05:14:30;;;;;;;39.77;26.23;;;;;;;13.24;100.00;101414.25;4940406;28;20210;-69
2022/10/14 05:17:07;;;;;;;42.77;27.70;;;;;;;13.22;100.00;101410.78;4945292;28;20905;-69
2022/10/14 05:19:33;;;;;;;40.07;28.27;;;;;;;13.23;100.00;101409.97;4935145;29;20714;-70
2022/10/14 05:21:59;;;;;;;43.50;28.83;;;;;;;13.22;100.00;101412.50;4939593;29;20204;-69
2022/10/14 05:24:34;;;;;;;43.53;29.37;;;;;;;13.22;100.00;101408.19;4935650;29;20581;-70
2022/10/14 05:27:01;;;;;;;42.27;28.90;;;;;;;13.20;100.00;101416.72;4947528;28;20547;-72
2022/10/14 05:29:28;;;;;;;40.77;27.70;;;;;;;13.18;100.00;101411.59;4923706;29;20221;-72
2022/10/14 05:31:55;;;;;;;45.03;30.50;;;;;;;13.15;100.00;101421.81;4940693;29;20248;-70
2022/10/14 05:34:35;;;;;;;46.47;30.10;;;;;;;13.14;100.00;101421.78;4936975;29;20185;-69
2022/10/14 05:37:02;;;;;;;48.70;30.70;;;;;;;13.15;100.00;101426.06;4947688;28;20186;-69
2022/10/14 05:39:33;;;;;;;50.20;31.67;;;;;;;13.14;100.00;101420.09;4931170;29;20267;-69
2022/10/14 05:41:59;;;;;;;50.77;30.87;;;;;;;13.10;100.00;101418.28;4947852;28;20718;-69
2022/10/14 05:44:27;;;;;;;51.37;32.37;;;;;;;13.12;100.00;101411.44;4947437;28;20802;-70
2022/10/14 05:46:53;;;;;;;51.73;31.37;;;;;;;13.09;100.00;101415.69;4933215;29;20206;-69
2022/10/14 05:49:18;;;;;;;54.47;33.80;;;;;;;13.10;100.00;101422.56;4931958;29;20217;-69
2022/10/14 05:51:44;;;;;;;56.93;32.20;;;;;;;13.08;100.00;101412.22;4935252;29;20630;-70
2022/10/14 05:54:16;;;;;;;55.27;32.63;;;;;;;13.08;100.00;101416.53;4941356;29;20539;-70
2022/10/14 05:56:42;;;;;;;48.40;31.90;;;;;;;13.05;100.00;101419.91;4933394;29;20271;-69
2022/10/14 05:59:09;;;;;;;55.60;33.13;;;;;;;13.06;100.00;101423.31;4935133;29;20230;-69
2022/10/14 06:01:35;;;;;;;65.30;33.50;;;;;;;13.04;100.00;101425.00;4946190;28;20660;-70
2022/10/14 06:04:01;;;;;;;62.07;32.77;;;;;;;13.04;100.00;101425.00;4916806;29;20202;-71
2022/10/14 06:06:26;;;;;;;57.17;33.70;;;;;;;13.04;100.00;101417.31;4936080;29;20178;-71
2022/10/14 06:08:54;;;;;;;56.43;33.63;;;;;;;13.03;100.00;101421.56;4932666;29;20220;-71
2022/10/14 06:11:19;;;;;;;55.20;33.13;;;;;;;13.03;100.00;101420.72;4935640;29;20595;-70
2022/10/14 06:13:45;;;;;;;59.20;33.47;;;;;;;13.01;100.00;101419.81;4936094;29;20285;-69
2022/10/14 06:16:10;;;;;;;60.63;33.93;;;;;;;13.02;100.00;101424.13;4943917;29;20185;-70
2022/10/14 06:18:36;;;;;;;59.63;33.80;;;;;;;13.01;100.00;101423.25;4931520;29;20282;-71
2022/10/14 06:21:04;;;;;;;58.20;34.87;;;;;;;13.01;100.00;101420.69;4940104;28;20217;-72
2022/10/14 06:23:29;;;;;;;56.00;33.53;;;;;;;13.01;100.00;101423.25;4930213;29;20209;-71
2022/10/14 06:25:55;;;;;;;52.70;34.23;;;;;;;13.03;100.00;101423.28;4930682;29;20208;-71
2022/10/14 06:28:20;;;;;;;56.47;32.83;;;;;;;13.03;100.00;101419.00;4933382;29;20185;-71
2022/10/14 06:30:50;;;;;;;61.13;34.47;;;;;;;13.04;100.00;101419.88;4931834;29;20253;-72
2022/10/14 06:33:15;;;;;;;58.37;33.67;;;;;;;13.06;100.00;101420.75;4929305;29;20186;-71
2022/10/14 06:35:41;;;;;;;61.57;32.50;;;;;;;13.09;100.00;101413.13;4930938;29;20241;-70
2022/10/14 06:38:06;;;;;;;56.17;33.67;;;;;;;13.09;100.00;101411.41;4926452;28;20203;-72
2022/10/14 06:40:32;;;;;;;56.47;32.43;;;;;;;13.11;100.00;101408.88;4931319;29;20205;-71
2022/10/14 06:42:58;;;;;;;56.93;33.47;;;;;;;13.11;100.00;101409.72;4927983;29;20723;-72
2022/10/14 06:45:23;;;;;;;53.00;31.23;;;;;;;13.14;100.00;101409.78;4931133;29;20190;-71
2022/10/14 06:47:49;;;;;;;56.07;33.40;;;;;;;13.14;100.00;101408.91;4925735;29;20720;-70
2022/10/14 06:50:14;;;;;;;54.70;33.10;;;;;;;13.17;100.00;101408.97;4931043;29;20584;-69
2022/10/14 06:52:40;;;;;;;55.30;33.63;;;;;;;13.18;100.00;101403.00;4926590;29;20291;-69
2022/10/14 06:55:06;;;;;;;55.97;32.00;;;;;;;13.22;100.00;101404.78;4926110;29;20236;-70
2022/10/14 06:57:31;;;;;;;53.57;34.07;;;;;;;13.22;100.00;101407.34;4925387;29;20201;-71
2022/10/14 06:59:57;;;;;;;56.33;33.27;;;;;;;13.23;100.00;101414.22;4930928;29;20214;-71
2022/10/14 07:02:22;;;;;;;58.63;33.77;;;;;;;13.25;100.00;101404.84;4928822;29;20193;-71
2022/10/14 07:04:48;;;;;;;57.97;33.83;;;;;;;13.26;100.00;101398.84;4939751;28;20260;-70
2022/10/14 07:07:13;;;;;;;58.57;34.63;;;;;;;13.31;100.00;101403.22;4927501;29;20289;-69
2022/10/14 07:09:39;;;;;;;55.40;33.70;;;;;;;13.37;100.00;101402.47;4925702;28;20257;-69
2022/10/14 07:12:04;;;;;;;56.27;34.83;;;;;;;13.41;100.00;101401.69;4930091;29;20206;-70
2022/10/14 07:14:30;;;;;;;52.03;32.83;;;;;;;13.44;100.00;101404.31;4927282;29;20186;-69
2022/10/14 07:16:55;;;;;;;53.90;32.93;;;;;;;13.48;100.00;101408.69;4929279;29;20547;-69
2022/10/14 07:19:21;;;;;;;50.77;32.77;;;;;;;13.48;100.00;101403.53;4921887;29;20248;-72
2022/10/14 07:21:46;;;;;;;54.57;33.43;;;;;;;13.50;100.00;101406.97;4928428;29;20234;-71
2022/10/14 07:24:12;;;;;;;57.30;35.17;;;;;;;13.52;100.00;101401.03;4932087;29;20316;-69
2022/10/14 07:26:38;;;;;;;55.03;34.50;;;;;;;13.56;100.00;101400.22;4929058;29;20190;-71
2022/10/14 07:29:04;;;;;;;59.30;34.63;;;;;;;13.63;100.00;101399.47;4932647;29;20735;-70
2022/10/14 07:31:30;;;;;;;50.93;33.07;;;;;;;13.76;100.00;101403.13;4930277;29;20232;-71
2022/10/14 07:33:56;;;;;;;53.73;34.50;;;;;;;13.85;100.00;101400.69;4949515;28;20186;-72
2022/10/14 07:36:21;;;;;;;51.80;33.07;;;;;;;13.94;99.96;101400.81;4933552;29;20260;-70
2022/10/14 07:38:47;;;;;;;53.80;33.67;;;;;;;13.94;99.55;101401.69;4931734;29;20190;-69
2022/10/14 07:41:17;;;;;;;52.47;34.93;;;;;;;13.97;99.38;101401.75;4939826;29;20612;-69
2022/10/14 07:43:48;;;;;;;54.63;35.53;;;;;;;13.94;99.06;101400.81;4919557;29;20209;-70
2022/10/14 07:46:15;;;;;;;52.93;35.17;;;;;;;13.88;99.05;101403.28;4933797;29;20197;-69
2022/10/14 07:48:41;;;;;;;59.20;35.63;;;;;;;13.89;99.10;101410.16;4934622;29;20193;-71
2022/10/14 07:51:07;;;;;;;57.60;37.73;;;;;;;13.98;99.57;101412.88;4925188;28;20736;-72
2022/10/14 07:53:34;;;;;;;59.60;35.13;;;;;;;14.05;99.18;101412.16;4930064;29;20200;-72
2022/10/14 07:56:00;;;;;;;53.67;34.47;;;;;;;14.10;98.40;101413.94;4934090;29;20213;-71
2022/10/14 07:58:28;;;;;;;58.43;35.83;;;;;;;14.05;99.40;101414.72;4934212;29;20200;-72
2022/10/14 08:00:54;;;;;;;58.00;35.67;;;;;;;14.13;98.58;101411.41;4934712;29;20687;-71
2022/10/14 08:03:20;;;;;;;58.33;36.67;;;;;;;14.18;99.07;101409.75;4905515;28;20232;-71
2022/10/14 08:05:46;;;;;;;55.53;35.13;;;;;;;14.32;98.58;101407.41;4922013;29;20189;-72
2022/10/14 08:08:13;;;;;;;61.53;36.93;;;;;;;14.29;98.24;101409.94;4901919;29;20205;-72
2022/10/14 08:10:39;;;;;;;58.43;36.93;;;;;;;14.30;98.87;101411.66;4922450;29;20298;-72
2022/10/14 08:13:05;;;;;;;59.77;38.67;;;;;;;14.31;98.39;101416.00;4934659;29;20205;-71
2022/10/14 08:15:39;;;;;;;60.30;37.80;;;;;;;14.24;98.09;101419.31;4933543;29;20198;-72
2022/10/14 08:18:09;;;;;;;56.57;36.83;;;;;;;14.24;97.92;101420.19;4934470;29;20241;-71
2022/10/14 08:20:35;;;;;;;63.10;38.10;;;;;;;14.16;98.18;101421.75;4932000;29;20759;-71
2022/10/14 08:23:00;;;;;;;59.93;38.37;;;;;;;14.28;98.10;101416.78;4934164;29;20209;-70
2022/10/14 08:25:27;;;;;;;60.13;38.93;;;;;;;14.33;97.63;101412.59;4932362;29;20659;-70
2022/10/14 08:27:56;;;;;;;60.87;38.30;;;;;;;14.36;97.74;101417.75;4932117;29;20707;-70
2022/10/14 08:30:22;;;;;;;60.07;37.83;;;;;;;14.30;97.14;101409.97;4933045;29;20214;-71
2022/10/14 08:32:47;;;;;;;59.87;38.30;;;;;;;14.20;97.66;101410.69;4933443;29;20185;-70
2022/10/14 08:35:13;;;;;;;59.90;38.43;;;;;;;14.16;97.63;101405.41;4932736;29;20659;-70
2022/10/14 08:37:39;;;;;;;62.83;39.07;;;;;;;14.13;97.69;101406.25;4927920;29;20197;-70
2022/10/14 08:40:05;;;;;;;63.47;38.70;;;;;;;14.17;98.08;101405.44;4934266;29;20265;-71
2022/10/14 08:42:54;;;;;;;65.07;39.23;;;;;;;14.13;97.70;101406.25;4929615;29;20735;-69
2022/10/14 08:45:22;;;;;;;57.43;36.27;;;;;;;14.17;97.63;101404.56;4929653;29;20262;-71
2022/10/14 08:47:49;;;;;;;51.80;35.10;;;;;;;14.18;97.26;101404.59;4931912;29;20639;-71
2022/10/14 08:50:23;;;;;;;58.37;38.77;;;;;;;14.12;97.57;101399.38;4933186;29;20229;-71
2022/10/14 08:52:54;;;;;;;59.17;36.40;;;;;;;14.00;96.97;101408.63;4937005;28;20236;-71
2022/10/14 08:55:42;;;;;;;57.03;37.30;;;;;;;14.02;97.89;101394.94;4933890;29;20202;-70
2022/10/14 08:58:17;;;;;;;55.90;36.77;;;;;;;14.03;97.39;101403.50;4930055;29;20217;-71
2022/10/14 09:00:48;;;;;;;60.27;37.67;;;;;;;14.03;97.58;101393.22;4929796;29;20309;-72
2022/10/14 09:03:19;;;;;;;54.17;36.00;;;;;;;14.10;97.95;101395.03;4928601;28;20233;-71
2022/10/14 09:05:52;;;;;;;53.33;36.57;;;;;;;14.13;97.11;101388.22;4928537;29;20680;-72
2022/10/14 09:08:30;;;;;;;58.50;37.27;;;;;;;14.20;96.94;101391.75;4931790;29;20202;-71
2022/10/14 09:10:57;;;;;;;53.67;36.73;;;;;;;14.30;96.19;101397.06;4926240;29;20232;-71
2022/10/14 09:13:31;;;;;;;51.90;36.60;;;;;;;14.31;96.04;101390.22;4929664;29;20880;-71
2022/10/14 09:16:07;;;;;;;50.23;35.40;;;;;;;14.33;95.58;101386.81;4928558;29;20202;-71
2022/10/14 09:18:48;;;;;;;50.03;33.57;;;;;;;14.47;95.33;101377.56;4926224;29;20195;-72
2022/10/14 09:21:19;;;;;;;49.83;33.60;;;;;;;14.66;94.56;101383.78;4925141;29;20204;-70
2022/10/14 09:23:45;;;;;;;47.73;33.37;;;;;;;14.75;94.25;101377.03;4928226;29;20707;-70
2022/10/14 09:26:18;;;;;;;47.83;33.67;;;;;;;14.78;93.59;101381.34;4928275;29;20206;-71
2022/10/14 09:28:44;;;;;;;44.43;32.80;;;;;;;14.61;92.50;101380.28;4925462;29;20250;-71
2022/10/14 09:31:12;;;;;;;45.27;31.73;;;;;;;14.57;92.77;101381.09;4929915;29;20237;-71
2022/10/14 09:33:39;;;;;;;42.80;30.93;;;;;;;14.69;91.47;101378.66;4925627;29;20204;-70
2022/10/14 09:36:16;;;;;;;42.03;30.77;;;;;;;15.13;90.84;101372.22;4927924;29;20201;-71
2022/10/14 09:38:51;;;;;;;39.50;30.10;;;;;;;15.89;87.88;101369.44;4929142;29;20839;-71
2022/10/14 09:41:21;;;;;;;34.00;27.00;;;;;;;17.33;79.91;101357.91;4928161;29;20308;-72
2022/10/14 09:44:31;;;;;;;34.40;27.80;;;;;;;17.84;77.13;101357.00;4928547;29;20201;-70
2022/10/14 09:47:01;;;;;;;34.27;27.00;;;;;;;17.18;78.99;101360.47;4925936;29;20676;-71
2022/10/14 09:49:39;;;;;;;29.73;23.97;;;;;;;21.22;64.90;101344.53;4926202;29;20210;-72
2022/10/14 09:52:06;;;;;;;26.48;21.60;;;;;;;21.26;59.58;101346.22;4929734;29;20196;-71
2022/10/14 09:54:32;;;;;;;27.65;23.17;;;;;;;20.02;63.70;101346.13;4930532;29;20178;-71
2022/10/14 09:57:06;;;;;;;24.05;21.48;;;;;;;19.57;63.94;101357.00;4931032;29;20218;-72
2022/10/14 09:59:46;;;;;;;26.43;21.87;;;;;;;17.38;71.57;101363.06;4926021;29;20697;-71
2022/10/14 10:02:21;;;;;;;27.83;23.00;;;;;;;16.88;75.10;101357.84;4932112;29;20662;-71
2022/10/14 10:04:48;;;;;;;31.47;24.37;;;;;;;16.61;76.71;101359.47;4928380;29;20296;-71
2022/10/14 10:07:30;;;;;;;28.10;23.60;;;;;;;17.76;71.56;101356.16;4929627;29;20253;-71
2022/10/14 10:09:58;;;;;;;28.67;22.13;;;;;;;19.35;65.03;101342.47;4918847;28;20235;-71
2022/10/14 10:12:30;;;;;;;26.13;21.93;;;;;;;22.47;57.04;101322.22;4928795;29;20715;-71
2022/10/14 10:14:58;;;;;;;22.52;20.00;;;;;;;24.76;48.51;101317.06;4931660;29;20181;-72
2022/10/14 10:17:26;;;;;;;23.83;19.50;;;;;;;24.31;47.77;101310.59;4928691;29;20594;-72
2022/10/14 10:20:06;;;;;;;21.17;19.05;;;;;;;23.12;51.38;101318.13;4927363;29;20217;-72
2022/10/14 10:22:35;;;;;;;21.10;18.30;;;;;;;21.60;53.50;101316.09;4926006;29;20226;-71
2022/10/14 10:25:02;;;;;;;23.73;20.27;;;;;;;19.19;62.04;101328.72;4930503;29;20193;-71
2022/10/14 10:27:34;;;;;;;21.40;19.10;;;;;;;18.29;66.29;101328.38;4933445;29;20777;-71
2022/10/14 10:30:13;;;;;;;22.97;19.47;;;;;;;18.47;66.64;101330.91;4929763;29;20232;-72
2022/10/14 10:32:45;;;;;;;23.57;20.33;;;;;;;18.37;66.74;101329.25;4930620;29;20217;-71
2022/10/14 10:35:22;;;;;;;25.80;21.10;;;;;;;18.30;67.68;101322.31;4913945;29;20289;-70
2022/10/14 10:38:01;;;;;;;21.87;18.87;;;;;;;19.73;63.04;101304.84;4929382;29;20277;-71
2022/10/14 10:40:33;;;;;;;23.07;19.73;;;;;;;20.44;62.47;101306.63;4937611;28;20221;-71
2022/10/14 10:43:01;;;;;;;19.58;16.60;;;;;;;27.17;42.87;101263.53;4930293;29;20217;-72
2022/10/14 10:45:37;;;;;;;17.00;15.30;;;;;;;24.96;45.14;101283.25;4936010;29;20193;-71
2022/10/14 10:48:35;;;;;;;15.48;13.95;;;;;;;27.44;40.36;101275.56;4908779;28;20198;-72
2022/10/14 10:51:25;;;;;;;14.40;12.23;;;;;;;26.16;40.68;101279.03;4929530;29;20708;-73
2022/10/14 10:54:13;;;;;;;13.75;12.35;;;;;;;29.15;36.48;101254.31;4929095;29;20198;-72
2022/10/14 10:56:59;;;;;;;14.38;12.98;;;;;;;28.07;37.80;101253.44;4931740;29;20212;-72
2022/10/14 10:59:39;;;;;;;15.65;14.10;;;;;;;22.87;47.60;101286.50;4931398;29;20221;-73
2022/10/14 11:02:11;;;;;;;14.40;13.00;;;;;;;25.59;43.24;101281.97;4933510;29;20193;-72
2022/10/14 11:04:53;;;;;;;16.40;14.82;;;;;;;21.08;54.57;101302.22;4935358;29;20289;-71
2022/10/14 11:13:54;;;;;;;17.10;13.57;;;;;;;23.35;49.30;101274.00;4935276;29;20325;-71
2022/10/14 11:16:31;;;;;;;15.55;13.35;;;;;;;21.46;53.04;101281.59;4934948;29;20197;-71
2022/10/14 11:19:13;;;;;;;18.00;15.07;;;;;;;19.35;59.05;101299.16;4930590;29;20197;-72
2022/10/14 11:22:27;;;;;;;16.77;14.87;;;;;;;18.66;62.28;101294.47;4934951;29;20562;-76
2022/10/14 11:25:21;;;;;;;15.70;13.33;;;;;;;18.48;63.84;101298.91;4953096;28;20404;-71
2022/10/14 11:28:01;;;;;;;18.67;14.47;;;;;;;18.28;65.13;101291.19;4949262;29;20264;-72